メインページ
METAR-TAF:

METAR-TAF

空港 :

Dease Lake, ブリティッシュコロンビア州, カナダ

緯度: 58-25-20N, 経度: 130-01-53W, 海抜: 803m

現時点の気象観測

当レポートは1時間15分前の10:00(UTC)に作成
南/南西の風 7kt
気温 -5°C
湿度 79%
気圧 1003 hPa
視程: 14.5km
高度3000ftの千切れ雲あり
高度14000ftの千切れ雲あり

METAR: CYDL 221000Z AUTO 20007KT 9SM BKN030 BKN140 M05/M08 A2962 RMK SLP058

時間: 03:15 (11:15 UTC)

予報

当レポートは16時間36分前の18:39(UTC)に作成
予報は21日の 19時(UTC)から 21日の 24時(UTC)まで有効
南西の風 8kt
視程: 10km
高度4000ftの雲は散在している
高度7000ftの雲は散在している
21日の 19時(UTC)から 21日の 24時(UTC)まで一時的に
視程: 6.4km
高度4000ftの千切れ雲あり
高度6000ftの千切れ雲あり
小雪

TAF: CYDL 211839Z 2119/2124 23008KT P6SM SCT040 SCT070 TEMPO 2119/2124 4SM -SN BKN040 BKN060 RMK FCST BASED ON AUTO OBS. NXT FCST WILL BE ISSUED AT 221345Z

4,000以上の空港の気象観測と天気予報(METAR報とTAF報)

利用可能な観測所は地図上に黄色い丸と赤い丸で示す。

丸の上にカーソルを重ねると観測所名を参照できる。

次にクリックすると気象観測と天気予報を参照できる。

マップの切り替え:黒色「×」印の緑ボタンをクリックして拡大、「-」印の緑ボタンをクリックして縮小、緑色の三角印をクリックして隣りの地図に切り替え


METAR-TAF: